Portada
METAR-TAF:

METAR-TAF

Aeroports :

Bordj Badji Mokhtar, Algèria

latitud: 21-22-30N, longitud: 000-55-26E, altitud: 396 m

Observació

L'informe es va fer fa 1 hora i 10 minuts, a les 15:00 UTC
Vent 14 kt del Nord/Nord-Oest
Temperatura 33°C
Pressió 1009 hPa
Visibilitat 10 km o més
sense núvols per sota de 1500 mi sense presència de cumulonimbus.

METAR: DATM 201500Z 34014KT CAVOK 33/// Q1009

Hora: 17:10 (16:10 UTC)

Pronòstic

L'informe es va fer fa 2 hores i 10 minuts, a les 14:00 UTC
Pronòstic vàlid del 20 a les 15 UTC al 20 a les 24 UTC
Vent 12 kt del Nord
Visibilitat 10 km o més
sense núvols per sota de 1500 mi sense presència de cumulonimbus.

TAF: DATM 201400Z 2015/2024 36012KT CAVOK

Observacions i pronòstics meteorològics de més de 4000 aeroports (METAR i TAF).

Les estacions disponibles són els punts grocs i vermells al mapa.

Posi el ratolí al punt desitjat per veure el nom de l'estació.

Feu clic per veure les observacions i els pronòstics meteorològics.

Per canviar el mapa: feu clic els botons verds amb una creu de color negre per apropar; al botó verd amb un guió per allunyar la imatge; o en les fletxes verdes per a mapes adjacents.


METAR-TAF: